Time;durP1;ratioP1;P1;durP2;ratioP2;P2;SDS_P1;SDS_P2;PMS_P1;PMS_P2;Temp;Humidity;BMP_temperature;BMP_pressure;BME280_temperature;BME280_humidity;BME280_pressure;Samples;Min_cycle;Max_cycle;Signal;HPM_P1;HPM_P2
2022/01/28 00:01:24;;;;;;;28.63;12.13;;;;;;;3.80;100.00;101648.16;5012929;28;20025;-64
2022/01/28 00:03:50;;;;;;;27.15;11.98;;;;;;;3.81;100.00;101645.56;5002053;28;20501;-64
2022/01/28 00:06:15;;;;;;;28.45;11.52;;;;;;;3.88;100.00;101647.47;4993331;28;20026;-64
2022/01/28 00:08:41;;;;;;;28.67;11.40;;;;;;;3.90;100.00;101639.59;4993943;28;20049;-64
2022/01/28 00:11:06;;;;;;;27.65;13.20;;;;;;;3.91;100.00;101641.34;4992821;28;20199;-64
2022/01/28 00:13:38;;;;;;;26.60;11.52;;;;;;;3.91;100.00;101644.00;4995853;28;20491;-64
2022/01/28 00:38:10;;;;;;;30.67;12.27;;;;;;;4.03;100.00;101642.50;4993440;28;20046;-64
2022/01/28 00:40:36;;;;;;;29.20;11.95;;;;;;;4.01;100.00;101643.31;4992336;28;20089;-64
2022/01/28 00:43:03;;;;;;;23.67;11.82;;;;;;;4.04;100.00;101638.09;4992949;28;20034;-64
2022/01/28 00:45:29;;;;;;;20.65;10.27;;;;;;;4.03;100.00;101652.13;4992911;28;20085;-65
2022/01/28 00:47:54;;;;;;;26.65;11.23;;;;;;;4.04;100.00;101659.16;4993139;28;20049;-64
2022/01/28 00:50:20;;;;;;;23.92;11.45;;;;;;;4.05;100.00;101648.66;4992151;28;20037;-64
2022/01/28 00:52:45;;;;;;;23.65;10.95;;;;;;;4.05;100.00;101637.25;4992864;28;20030;-64
2022/01/28 00:55:11;;;;;;;30.55;11.57;;;;;;;4.06;100.00;101639.03;4993538;28;20113;-64
2022/01/28 00:57:37;;;;;;;28.17;11.65;;;;;;;4.07;100.00;101641.69;4993043;28;20022;-64
2022/01/28 01:00:06;;;;;;;30.23;12.10;;;;;;;4.03;100.00;101637.25;4992196;28;20100;-64
2022/01/28 01:02:31;;;;;;;27.73;11.52;;;;;;;4.06;100.00;101639.03;4992544;28;20257;-64
2022/01/28 01:04:57;;;;;;;29.60;11.50;;;;;;;4.07;100.00;101641.69;4992837;28;20034;-64
2022/01/28 01:07:22;;;;;;;28.25;11.10;;;;;;;4.01;100.00;101649.47;5004325;28;20038;-64
2022/01/28 01:09:49;;;;;;;27.25;11.90;;;;;;;3.98;100.00;101664.31;5012146;28;20022;-64
2022/01/28 01:12:18;;;;;;;29.65;11.73;;;;;;;3.96;100.00;101658.13;5011318;28;20028;-64
2022/01/28 01:14:44;;;;;;;28.42;10.90;;;;;;;4.04;100.00;101659.16;5008792;28;20455;-65
2022/01/28 01:17:25;;;;;;;25.42;11.48;;;;;;;4.02;100.00;101674.03;5011857;28;20056;-64
2022/01/28 01:19:59;;;;;;;26.67;11.75;;;;;;;4.05;100.00;101676.75;5011481;28;20060;-64
2022/01/28 01:22:25;;;;;;;26.92;11.98;;;;;;;4.06;100.00;101673.25;5011721;28;20030;-65
2022/01/28 01:24:59;;;;;;;30.20;11.50;;;;;;;4.02;100.00;101676.66;5011869;28;20025;-65
2022/01/28 01:27:25;;;;;;;28.48;12.13;;;;;;;3.99;100.00;101672.25;5011560;28;20049;-64
2022/01/28 01:29:50;;;;;;;27.83;12.27;;;;;;;3.96;100.00;101669.56;5010380;28;20138;-65
2022/01/28 01:32:16;;;;;;;28.13;11.93;;;;;;;4.00;100.00;101683.66;5009155;28;20025;-65
2022/01/28 01:34:42;;;;;;;24.77;11.82;;;;;;;4.01;100.00;101690.69;4993564;28;20018;-64
2022/01/28 01:37:10;;;;;;;24.75;11.10;;;;;;;4.03;100.00;101689.00;4992211;28;20038;-65
2022/01/28 01:39:38;;;;;;;24.55;11.48;;;;;;;4.05;100.00;101687.28;4994346;28;20097;-64
2022/01/28 01:42:19;;;;;;;22.60;11.07;;;;;;;4.07;100.00;101696.97;4992961;28;20030;-64
2022/01/28 01:52:48;;;;;;;28.27;12.40;;;;;;;4.13;100.00;101695.31;4991696;28;20095;-64
2022/01/28 01:55:14;;;;;;;26.30;11.77;;;;;;;4.03;100.00;101679.34;4992120;28;20121;-64
2022/01/28 01:57:39;;;;;;;31.25;11.13;;;;;;;4.09;100.00;101704.91;4991864;28;20390;-64
2022/01/28 02:00:06;;;;;;;27.23;11.07;;;;;;;4.11;100.00;101724.25;4991156;28;20438;-64
2022/01/28 02:02:32;;;;;;;25.15;11.35;;;;;;;4.15;100.00;101723.47;4991787;28;20053;-64
2022/01/28 02:04:57;;;;;;;28.20;12.43;;;;;;;4.17;100.00;101711.22;5011177;28;20029;-64
2022/01/28 02:07:25;;;;;;;21.63;11.38;;;;;;;4.16;100.00;101709.44;5010997;28;20458;-64
2022/01/28 02:09:50;;;;;;;29.73;11.68;;;;;;;4.17;100.00;101719.09;5010776;28;20086;-64
2022/01/28 02:12:16;;;;;;;26.42;11.00;;;;;;;4.18;100.00;101715.63;5011026;28;20026;-64
2022/01/28 02:14:42;;;;;;;28.20;10.57;;;;;;;4.18;100.00;101720.00;5010881;28;20022;-64
2022/01/28 02:17:08;;;;;;;30.50;10.02;;;;;;;4.18;100.00;101720.00;5010899;28;20046;-64
2022/01/28 02:19:33;;;;;;;26.50;11.23;;;;;;;4.22;100.00;101722.72;5010717;28;20397;-64
2022/01/28 02:21:58;;;;;;;26.52;11.75;;;;;;;4.20;100.00;101731.47;5009611;28;20386;-64
2022/01/28 02:24:33;;;;;;;28.10;10.85;;;;;;;4.18;100.00;101722.63;4995611;28;20030;-65
2022/01/28 02:26:58;;;;;;;27.38;10.75;;;;;;;4.15;100.00;101723.47;4990232;28;20113;-64
2022/01/28 02:29:32;;;;;;;25.08;10.85;;;;;;;4.18;100.00;101739.34;4990517;28;20100;-65
2022/01/28 02:32:00;;;;;;;23.17;10.27;;;;;;;4.24;100.00;101725.38;4991218;28;20022;-65
2022/01/28 02:34:25;;;;;;;19.77;8.85;;;;;;;4.21;100.00;101726.22;5003187;28;20037;-64
2022/01/28 02:36:51;;;;;;;26.17;12.27;;;;;;;4.25;100.00;101730.69;5010515;28;20029;-64
2022/01/28 02:39:16;;;;;;;27.50;9.55;;;;;;;4.16;100.00;101712.06;5010215;28;20034;-64
2022/01/28 02:41:46;;;;;;;26.95;10.27;;;;;;;4.18;100.00;101731.44;5010440;28;20029;-65
2022/01/28 02:44:43;;;;;;;25.52;9.45;;;;;;;4.30;100.00;101734.28;5010847;28;20615;-62
2022/01/28 02:47:12;;;;;;;22.52;10.75;;;;;;;4.32;100.00;101740.50;5010516;28;20383;-64
2022/01/28 02:49:52;;;;;;;24.45;9.82;;;;;;;4.35;100.00;101740.53;5027010;28;20052;-65
2022/01/28 02:52:22;;;;;;;26.98;10.27;;;;;;;4.41;100.00;101734.53;5027276;28;20025;-65
2022/01/28 02:54:49;;;;;;;23.67;9.95;;;;;;;4.39;100.00;101737.13;5027942;28;20506;-65
2022/01/28 02:57:20;;;;;;;27.83;10.32;;;;;;;4.50;100.00;101735.56;5027426;28;20033;-64
2022/01/28 02:59:45;;;;;;;28.00;11.52;;;;;;;4.46;100.00;101723.22;5010805;28;20048;-64
2022/01/28 03:02:11;;;;;;;24.63;9.93;;;;;;;4.48;100.00;101721.47;5027540;28;20026;-64
2022/01/28 03:07:16;;;;;;;22.73;10.07;;;;;;;4.48;100.00;101720.63;5027513;28;20029;-64
2022/01/28 03:10:14;;;;;;;20.70;9.70;;;;;;;4.50;100.00;101717.13;5027218;28;20029;-64
2022/01/28 03:12:59;;;;;;;21.58;9.25;;;;;;;4.49;100.00;101722.38;5014001;28;20034;-64
2022/01/28 03:15:23;;;;;;;20.52;8.45;;;;;;;4.48;100.00;101729.38;5007569;28;20104;-64
2022/01/28 03:17:53;;;;;;;17.65;8.90;;;;;;;4.49;100.00;101739.09;5007353;28;20054;-64
2022/01/28 03:22:45;;;;;;;22.15;9.05;;;;;;;4.50;100.00;101735.56;4990596;28;20034;-64
2022/01/28 03:25:11;;;;;;;20.50;8.15;;;;;;;4.52;100.00;101740.88;4990874;28;20034;-64
2022/01/28 03:30:14;;;;;;;20.15;8.32;;;;;;;4.57;100.00;101737.47;4989899;28;20042;-64
2022/01/28 03:32:39;;;;;;;19.27;8.77;;;;;;;4.57;100.00;101742.75;4990592;28;20034;-64
2022/01/28 03:35:05;;;;;;;25.65;9.65;;;;;;;4.57;100.00;101745.38;4990084;28;20026;-64
2022/01/28 03:37:31;;;;;;;17.10;7.68;;;;;;;4.57;100.00;101742.75;4993279;28;20101;-64
2022/01/28 03:39:56;;;;;;;22.42;9.52;;;;;;;4.60;100.00;101750.72;4990173;28;20022;-64
2022/01/28 03:42:22;;;;;;;19.45;8.07;;;;;;;4.66;100.00;101753.44;4989935;28;20030;-64
2022/01/28 03:44:47;;;;;;;23.15;9.35;;;;;;;4.70;100.00;101759.66;4999455;28;20385;-64
2022/01/28 03:47:13;;;;;;;18.25;8.35;;;;;;;4.69;100.00;101764.06;5010244;28;20482;-64
2022/01/28 03:49:38;;;;;;;21.60;7.93;;;;;;;4.71;100.00;101767.59;5009608;28;20032;-64
2022/01/28 03:52:04;;;;;;;19.00;9.07;;;;;;;4.65;100.00;101767.50;5009773;28;20033;-64
2022/01/28 03:54:29;;;;;;;17.00;7.03;;;;;;;4.57;100.00;101773.47;5009945;28;20482;-64
2022/01/28 03:56:56;;;;;;;16.13;7.95;;;;;;;4.62;100.00;101771.81;5009025;28;20061;-64
2022/01/28 03:59:21;;;;;;;16.33;6.93;;;;;;;4.63;100.00;101779.75;5006468;28;20045;-65
2022/01/28 04:01:49;;;;;;;20.67;8.57;;;;;;;4.61;100.00;101785.88;5009008;28;20038;-64
2022/01/28 04:05:30;;;;;;;17.58;8.20;;;;;;;4.57;100.00;101789.28;4994063;28;20037;-64
2022/01/28 04:12:46;;;;;;;16.80;8.25;;;;;;;4.58;100.00;101818.28;4993598;28;20033;-64
2022/01/28 04:18:10;;;;;;;15.80;7.93;;;;;;;4.56;100.00;101812.13;5012979;28;20074;-64
2022/01/28 04:20:35;;;;;;;18.30;8.18;;;;;;;4.55;100.00;101822.59;4991528;28;20110;-64
2022/01/28 04:23:00;;;;;;;20.33;9.07;;;;;;;4.57;100.00;101828.81;4993321;28;20026;-64
2022/01/28 04:25:27;;;;;;;19.30;7.93;;;;;;;4.58;100.00;101822.69;4993120;28;20054;-64
2022/01/28 04:27:52;;;;;;;23.88;9.15;;;;;;;4.56;100.00;101829.69;4998338;28;20034;-64
2022/01/28 04:30:18;;;;;;;18.17;8.27;;;;;;;4.52;100.00;101834.00;4992734;28;20042;-64
2022/01/28 04:32:46;;;;;;;20.42;7.60;;;;;;;4.55;100.00;101841.94;4995135;28;20368;-64
2022/01/28 04:35:11;;;;;;;27.08;8.75;;;;;;;4.57;100.00;101848.16;5012978;28;20036;-64
2022/01/28 04:40:21;;;;;;;26.77;10.25;;;;;;;4.43;100.00;101839.06;5009155;28;20025;-64
2022/01/28 04:43:04;;;;;;;26.00;10.13;;;;;;;4.44;100.00;101840.84;5012588;28;20022;-64
2022/01/28 04:45:42;;;;;;;18.80;7.38;;;;;;;4.43;100.00;101852.22;5011946;28;20371;-64
2022/01/28 04:50:54;;;;;;;18.65;7.93;;;;;;;4.44;100.00;101851.38;5010770;28;20407;-64
2022/01/28 04:56:05;;;;;;;28.98;9.45;;;;;;;4.47;100.00;101864.63;5012456;28;20034;-64
2022/01/28 05:01:45;;;;;;;20.33;8.43;;;;;;;4.48;100.00;101862.88;5011861;28;20037;-64
2022/01/28 05:04:42;;;;;;;20.98;7.70;;;;;;;4.45;100.00;101853.16;5003120;28;20491;-64
2022/01/28 05:27:16;;;;;;;26.65;10.15;;;;;;;4.13;100.00;101821.72;4992556;28;20030;-65
2022/01/28 05:29:42;;;;;;;27.00;9.07;;;;;;;4.05;100.00;101818.91;4991742;28;20026;-64
2022/01/28 05:32:08;;;;;;;25.90;9.73;;;;;;;3.86;100.00;101808.81;4994940;28;20531;-64
2022/01/28 05:34:34;;;;;;;24.17;10.00;;;;;;;3.81;100.00;101813.97;5006930;28;20713;-64
2022/01/28 05:37:00;;;;;;;18.70;8.90;;;;;;;3.87;100.00;101824.63;4994545;28;20102;-64
2022/01/28 05:39:25;;;;;;;18.90;8.65;;;;;;;3.80;100.00;101827.09;4991894;28;20053;-64
2022/01/28 05:41:51;;;;;;;35.78;12.15;;;;;;;3.75;100.00;101834.91;4991956;28;20369;-64
2022/01/28 05:44:18;;;;;;;30.23;10.30;;;;;;;3.73;100.00;101843.59;4991979;28;20030;-64
2022/01/28 05:46:45;;;;;;;23.95;9.32;;;;;;;3.69;100.00;101840.00;4991838;28;20026;-64
2022/01/28 05:49:10;;;;;;;20.63;9.45;;;;;;;3.66;100.00;101839.94;4991455;28;20501;-64
2022/01/28 05:51:36;;;;;;;18.52;8.70;;;;;;;3.67;100.00;101846.09;4991460;28;20061;-64
2022/01/28 05:54:01;;;;;;;20.35;9.13;;;;;;;3.67;100.00;101856.63;4991579;28;20033;-64
2022/01/28 05:56:27;;;;;;;24.75;8.50;;;;;;;3.63;100.00;101853.00;4994246;28;20030;-63
2022/01/28 05:58:54;;;;;;;21.35;8.25;;;;;;;3.76;100.00;101872.59;4991354;28;20026;-64
2022/01/28 06:01:20;;;;;;;18.77;8.38;;;;;;;3.78;100.00;101876.16;4991133;28;20034;-64
2022/01/28 06:03:47;;;;;;;20.75;9.88;;;;;;;3.79;100.00;101885.84;5001987;28;20033;-64
2022/01/28 06:06:19;;;;;;;22.67;9.88;;;;;;;3.81;100.00;101886.78;5010938;28;20021;-64
2022/01/28 06:08:48;;;;;;;28.98;10.20;;;;;;;3.89;100.00;101896.63;5011150;28;20129;-64
2022/01/28 06:11:15;;;;;;;23.27;8.20;;;;;;;3.89;100.00;101901.00;5010268;28;20526;-64
2022/01/28 06:13:40;;;;;;;19.80;9.32;;;;;;;3.92;100.00;101909.00;5010928;28;20400;-64
2022/01/28 06:16:06;;;;;;;22.00;8.77;;;;;;;3.99;100.00;101929.34;5010982;28;20026;-64
2022/01/28 06:18:31;;;;;;;25.02;9.95;;;;;;;4.03;100.00;101936.47;5010765;28;20058;-64
2022/01/28 06:20:57;;;;;;;29.60;14.07;;;;;;;3.96;100.00;101913.47;5010024;28;20026;-64
2022/01/28 06:23:22;;;;;;;43.40;18.27;;;;;;;4.03;100.00;101918.03;5010592;28;20392;-64
2022/01/28 06:25:49;;;;;;;32.88;14.45;;;;;;;4.03;100.00;101925.94;5009868;28;20050;-64
2022/01/28 06:28:14;;;;;;;29.88;12.25;;;;;;;4.07;100.00;101926.91;5010185;28;20025;-64
2022/01/28 06:30:40;;;;;;;31.27;12.85;;;;;;;4.05;100.00;101942.66;5010165;28;20049;-64
2022/01/28 06:33:05;;;;;;;23.08;11.35;;;;;;;4.08;100.00;101929.56;5000662;28;20422;-65
2022/01/28 06:35:30;;;;;;;21.85;10.23;;;;;;;3.98;100.00;101933.72;5010082;28;20113;-64
2022/01/28 06:37:56;;;;;;;28.15;11.55;;;;;;;3.92;100.00;101932.69;5010869;28;20474;-64
2022/01/28 06:40:21;;;;;;;28.52;10.80;;;;;;;3.87;100.00;101936.94;5009753;28;20030;-64
2022/01/28 06:42:47;;;;;;;29.15;14.02;;;;;;;3.78;100.00;101926.19;5007248;28;20022;-64
2022/01/28 06:45:13;;;;;;;27.65;13.35;;;;;;;3.64;100.00;101924.94;5010041;28;20026;-64
2022/01/28 06:47:38;;;;;;;23.52;10.77;;;;;;;3.58;100.00;101916.88;5010890;28;20029;-64
2022/01/28 06:50:05;;;;;;;24.52;10.73;;;;;;;3.53;100.00;101915.88;5000619;28;20101;-64
2022/01/28 06:52:32;;;;;;;22.75;10.50;;;;;;;3.53;100.00;101929.94;5007052;28;20022;-63
2022/01/28 06:54:58;;;;;;;26.48;10.75;;;;;;;3.50;100.00;101936.84;5010359;28;20036;-63
2022/01/28 06:57:24;;;;;;;19.58;10.13;;;;;;;3.46;100.00;101945.53;5010868;28;20470;-64
2022/01/28 06:59:49;;;;;;;24.02;10.95;;;;;;;3.40;100.00;101934.81;5010087;28;20037;-64
2022/01/28 07:02:14;;;;;;;21.02;11.73;;;;;;;3.39;100.00;101943.56;5009925;28;20018;-64
2022/01/28 07:04:40;;;;;;;22.50;9.27;;;;;;;3.37;100.00;101940.00;5010574;28;20048;-64
2022/01/28 07:07:06;;;;;;;24.40;10.32;;;;;;;3.29;100.00;101936.28;5010100;28;20022;-64
2022/01/28 07:09:32;;;;;;;21.80;10.63;;;;;;;3.26;100.00;101934.44;5010181;28;20033;-63
2022/01/28 07:11:58;;;;;;;15.88;9.27;;;;;;;3.21;100.00;101933.44;5009674;28;20022;-64
2022/01/28 07:14:23;;;;;;;19.63;8.38;;;;;;;3.19;100.00;101936.88;4998680;28;20097;-64
2022/01/28 07:16:49;;;;;;;18.17;9.45;;;;;;;3.18;100.00;101953.50;4993153;28;20032;-64
2022/01/28 07:19:14;;;;;;;18.90;9.50;;;;;;;3.15;100.00;101954.28;4990249;28;20390;-64
2022/01/28 07:21:39;;;;;;;21.15;10.10;;;;;;;3.15;100.00;101942.88;4990658;28;20026;-64
2022/01/28 07:24:05;;;;;;;20.95;8.88;;;;;;;3.15;100.00;101958.66;4990421;28;20494;-63
2022/01/28 07:26:30;;;;;;;19.63;9.88;;;;;;;3.13;100.00;101957.75;4990445;28;20100;-63
2022/01/28 07:28:56;;;;;;;19.42;9.50;;;;;;;3.16;100.00;101960.44;4992310;28;20034;-64
2022/01/28 07:31:22;;;;;;;21.83;10.25;;;;;;;3.18;100.00;101980.66;4992665;28;20419;-63
2022/01/28 07:33:47;;;;;;;18.00;10.35;;;;;;;3.23;100.00;101984.31;5001353;28;20048;-63
2022/01/28 07:36:13;;;;;;;26.83;12.50;;;;;;;3.27;100.00;101982.66;4993904;28;20111;-64
2022/01/28 07:38:38;;;;;;;27.58;12.30;;;;;;;3.35;100.00;101983.75;4990499;28;20038;-64
2022/01/28 07:41:05;;;;;;;23.80;12.32;;;;;;;3.43;100.00;101982.22;4992683;28;20106;-64
2022/01/28 07:43:31;;;;;;;28.30;13.40;;;;;;;3.48;100.00;101997.31;4994028;28;20103;-64
2022/01/28 07:45:57;;;;;;;26.98;12.82;;;;;;;3.58;100.00;101999.34;4993917;28;20026;-63
2022/01/28 07:48:22;;;;;;;27.50;13.05;;;;;;;3.65;100.00;102010.91;4993799;28;20022;-63
2022/01/28 07:50:47;;;;;;;33.67;13.18;;;;;;;3.54;100.00;102005.34;4993833;28;20502;-63
2022/01/28 07:53:16;;;;;;;30.90;13.52;;;;;;;3.57;100.00;102004.56;4994193;28;20066;-63
2022/01/28 07:55:42;;;;;;;31.52;13.50;;;;;;;3.67;100.00;102004.84;4994311;28;20049;-63
2022/01/28 07:58:08;;;;;;;23.88;11.82;;;;;;;3.89;100.00;102015.09;4996127;28;20026;-63
2022/01/28 08:00:33;;;;;;;26.88;13.00;;;;;;;4.27;100.00;102007.28;4992851;28;20036;-63
2022/01/28 08:02:59;;;;;;;27.33;13.90;;;;;;;4.43;100.00;102017.31;4997623;28;20026;-64
2022/01/28 08:05:24;;;;;;;30.38;13.95;;;;;;;4.30;100.00;102013.47;5013577;28;20160;-64
2022/01/28 08:07:51;;;;;;;30.38;14.23;;;;;;;4.19;100.00;102025.50;5013740;28;20482;-64
2022/01/28 08:10:16;;;;;;;28.23;12.60;;;;;;;4.12;100.00;102026.19;5012820;28;20018;-64
2022/01/28 08:12:46;;;;;;;22.08;11.63;;;;;;;4.27;100.00;102026.59;5012886;28;20029;-64
2022/01/28 08:15:12;;;;;;;25.85;11.40;;;;;;;5.17;100.00;102027.81;5013259;28;20033;-64
2022/01/28 08:17:38;;;;;;;25.38;11.55;;;;;;;6.47;100.00;102034.72;5012978;28;20045;-64
2022/01/28 08:20:03;;;;;;;21.65;11.13;;;;;;;7.64;99.36;102030.16;5012092;28;20026;-64
2022/01/28 08:22:30;;;;;;;27.40;12.65;;;;;;;8.13;90.11;102033.31;5012678;28;20033;-64
2022/01/28 08:24:55;;;;;;;25.45;11.35;;;;;;;7.50;87.14;102042.38;5012688;28;20025;-64
2022/01/28 08:27:21;;;;;;;24.25;11.05;;;;;;;6.88;88.90;102051.22;5013069;28;20494;-64
2022/01/28 08:29:46;;;;;;;17.58;10.05;;;;;;;6.40;89.94;102055.75;5000689;28;20657;-64
2022/01/28 08:32:11;;;;;;;15.55;9.68;;;;;;;5.90;92.83;102056.59;4993280;28;20032;-65
2022/01/28 08:34:37;;;;;;;19.75;9.75;;;;;;;5.58;94.46;102068.25;5010201;28;20478;-64
2022/01/28 08:37:04;;;;;;;20.45;9.65;;;;;;;5.37;96.94;102066.03;4995266;28;20028;-64
2022/01/28 08:39:31;;;;;;;17.67;9.95;;;;;;;5.62;100.00;102062.19;4992030;28;20027;-64
2022/01/28 08:41:56;;;;;;;21.65;11.27;;;;;;;6.68;100.00;102073.84;4993029;28;20041;-63
2022/01/28 08:44:21;;;;;;;18.83;9.77;;;;;;;7.12;95.39;102078.03;4993201;28;20034;-64
2022/01/28 08:46:47;;;;;;;17.95;8.98;;;;;;;7.17;91.87;102080.72;4995294;28;20026;-64
2022/01/28 08:49:12;;;;;;;21.75;9.18;;;;;;;6.83;90.67;102073.19;4992850;28;20049;-64
2022/01/28 08:51:38;;;;;;;19.25;9.18;;;;;;;6.45;90.81;102080.50;4993107;28;20503;-64
2022/01/28 08:54:03;;;;;;;19.42;9.45;;;;;;;6.01;92.93;102084.97;4992669;28;20022;-64
2022/01/28 08:56:29;;;;;;;17.40;9.45;;;;;;;5.56;95.40;102091.06;4992612;28;20077;-64
2022/01/28 08:58:54;;;;;;;16.75;8.93;;;;;;;5.42;97.84;102103.09;4992816;28;20101;-64
2022/01/28 09:01:20;;;;;;;17.83;8.90;;;;;;;5.32;99.95;102108.16;4992649;28;20029;-64
2022/01/28 09:03:46;;;;;;;16.55;7.55;;;;;;;5.31;100.00;102108.13;5003057;28;20029;-65
2022/01/28 09:06:11;;;;;;;14.00;8.30;;;;;;;5.51;100.00;102098.00;5012419;28;20489;-63
2022/01/28 09:08:39;;;;;;;19.77;8.93;;;;;;;5.51;100.00;102090.09;5007785;28;20053;-63
2022/01/28 09:13:48;;;;;;;15.80;8.77;;;;;;;5.28;100.00;102082.59;4992627;28;20030;-63
2022/01/28 09:16:13;;;;;;;19.85;8.90;;;;;;;5.12;100.00;102072.53;4994868;28;20392;-63
2022/01/28 09:18:39;;;;;;;16.98;7.90;;;;;;;5.04;100.00;102074.13;4992474;28;20050;-63
2022/01/28 09:21:04;;;;;;;17.08;8.18;;;;;;;5.10;100.00;102079.56;4992060;28;20030;-63
2022/01/28 09:23:30;;;;;;;17.60;7.88;;;;;;;5.30;100.00;102075.56;4991941;28;20054;-64
2022/01/28 09:25:55;;;;;;;21.38;10.40;;;;;;;5.42;100.00;102067.03;4995085;28;20022;-64
2022/01/28 09:28:21;;;;;;;17.60;9.93;;;;;;;5.45;100.00;102076.78;4992418;28;20375;-63
2022/01/28 09:30:46;;;;;;;20.25;9.93;;;;;;;5.51;100.00;102072.50;4991413;28;20045;-64
2022/01/28 09:33:12;;;;;;;16.30;8.77;;;;;;;5.66;100.00;102069.28;5000550;28;20018;-64
2022/01/28 09:35:37;;;;;;;23.05;10.02;;;;;;;7.36;100.00;102070.44;5012000;28;20036;-64
2022/01/28 09:38:04;;;;;;;21.48;9.65;;;;;;;9.83;95.08;102055.66;5002906;28;20052;-64
2022/01/28 09:40:30;;;;;;;16.30;9.80;;;;;;;10.31;75.45;102061.13;4991772;28;20018;-64
2022/01/28 09:42:56;;;;;;;18.75;8.82;;;;;;;11.04;77.01;102065.50;4991297;28;20042;-64
2022/01/28 09:45:24;;;;;;;17.70;10.10;;;;;;;11.31;67.80;102070.78;4991745;28;20037;-64
2022/01/28 09:47:56;;;;;;;16.05;8.00;;;;;;;10.01;70.03;102082.31;4990055;28;20022;-64
2022/01/28 09:50:23;;;;;;;17.60;8.30;;;;;;;9.56;77.99;102085.69;4993838;28;20037;-63
2022/01/28 09:52:50;;;;;;;13.90;7.20;;;;;;;9.60;74.56;102089.25;4991108;28;20497;-64
2022/01/28 09:55:17;;;;;;;12.82;6.25;;;;;;;9.11;75.88;102098.69;4991953;28;20030;-64
2022/01/28 09:57:43;;;;;;;10.50;6.40;;;;;;;8.65;78.54;102100.13;4990266;28;20030;-64
2022/01/28 10:00:10;;;;;;;14.43;8.07;;;;;;;9.06;78.66;102097.81;4991566;28;20104;-64
2022/01/28 10:02:50;;;;;;;13.20;6.60;;;;;;;10.38;77.87;102093.03;4991732;28;20045;-64
2022/01/28 10:05:24;;;;;;;14.23;7.30;;;;;;;12.09;67.72;102096.25;5011507;28;20433;-64
2022/01/28 10:08:09;;;;;;;12.98;6.45;;;;;;;13.74;59.71;102091.19;5011183;28;20556;-64
2022/01/28 10:10:56;;;;;;;15.55;6.50;;;;;;;14.47;55.32;102083.03;5010754;28;20072;-64
2022/01/28 10:13:31;;;;;;;13.27;7.57;;;;;;;14.55;52.27;102083.81;5010919;28;20040;-64
2022/01/28 10:16:20;;;;;;;17.17;8.63;;;;;;;14.38;54.07;102096.59;5011066;28;20050;-64
2022/01/28 10:18:56;;;;;;;24.73;10.40;;;;;;;12.25;57.32;102097.03;5010885;28;20405;-64
2022/01/28 10:21:26;;;;;;;22.90;12.95;;;;;;;11.30;63.23;102105.44;5010652;28;20026;-64
2022/01/28 10:24:03;;;;;;;14.75;7.97;;;;;;;11.39;66.69;102097.41;5011144;28;20397;-64
2022/01/28 10:26:29;;;;;;;17.02;10.57;;;;;;;11.69;64.33;102095.56;5010426;28;20040;-64
2022/01/28 10:28:54;;;;;;;13.32;8.63;;;;;;;10.89;66.16;102096.63;5010423;28;20026;-64
2022/01/28 10:31:20;;;;;;;12.85;7.65;;;;;;;10.40;69.93;102091.28;4996812;28;20026;-64
2022/01/28 10:33:45;;;;;;;11.48;7.45;;;;;;;10.56;72.74;102093.06;4999918;28;20048;-64
2022/01/28 10:36:11;;;;;;;14.43;7.68;;;;;;;11.67;68.42;102096.44;4990847;28;20026;-64
2022/01/28 10:38:41;;;;;;;14.18;7.05;;;;;;;12.17;63.44;102089.09;4993049;28;20026;-64
2022/01/28 10:41:07;;;;;;;12.60;7.15;;;;;;;11.14;65.21;102095.66;4989620;28;20030;-64
2022/01/28 10:43:40;;;;;;;11.95;6.75;;;;;;;10.53;68.76;102093.06;4991077;28;20394;-64
2022/01/28 10:46:05;;;;;;;11.43;6.75;;;;;;;10.15;71.42;102089.44;4990947;28;20030;-65
2022/01/28 10:48:31;;;;;;;14.23;6.43;;;;;;;9.81;73.83;102095.53;4990641;28;20222;-64
2022/01/28 10:50:58;;;;;;;11.27;5.90;;;;;;;9.55;76.40;102097.19;4990137;28;20425;-64
2022/01/28 10:53:27;;;;;;;14.30;7.30;;;;;;;9.40;77.52;102088.25;4991010;28;20026;-64
2022/01/28 10:55:57;;;;;;;14.05;6.55;;;;;;;9.31;78.80;102094.41;4990436;28;20068;-64
2022/01/28 10:58:25;;;;;;;14.85;6.70;;;;;;;9.41;79.14;102092.69;4991128;28;20018;-64
2022/01/28 11:00:58;;;;;;;10.90;6.50;;;;;;;9.25;80.48;102097.94;4990147;28;20030;-64
2022/01/28 11:03:26;;;;;;;13.45;7.15;;;;;;;9.08;80.51;102098.69;4996071;28;20034;-64
2022/01/28 11:05:57;;;;;;;13.75;6.85;;;;;;;8.53;80.92;102096.50;4991241;28;20026;-64
2022/01/28 11:08:24;;;;;;;18.13;6.68;;;;;;;8.35;84.04;102096.31;4990632;28;20374;-64
2022/01/28 11:10:50;;;;;;;15.73;7.50;;;;;;;8.30;84.75;102090.09;4990504;28;20374;-64
2022/01/28 11:13:16;;;;;;;13.45;7.32;;;;;;;8.05;85.76;102089.78;4990985;28;20026;-64
2022/01/28 11:15:42;;;;;;;16.10;7.97;;;;;;;8.04;86.55;102093.31;4992528;28;20022;-64
2022/01/28 11:18:09;;;;;;;12.57;7.93;;;;;;;7.97;87.93;102086.16;4994913;28;20042;-64
2022/01/28 11:20:41;;;;;;;12.90;7.13;;;;;;;7.97;88.28;102090.59;4993342;28;20037;-64
2022/01/28 11:23:22;;;;;;;12.80;7.30;;;;;;;7.97;88.65;102086.16;5003233;28;20100;-64
2022/01/28 11:26:12;;;;;;;18.02;7.65;;;;;;;7.97;87.77;102080.00;5014156;28;20108;-64
2022/01/28 11:28:55;;;;;;;13.45;7.35;;;;;;;7.94;88.32;102085.25;5011078;28;20029;-64
2022/01/28 11:31:43;;;;;;;11.75;6.97;;;;;;;8.00;88.14;102095.94;5013648;28;20029;-64
2022/01/28 11:34:15;;;;;;;12.30;7.60;;;;;;;8.04;88.61;102089.78;5011813;28;20033;-64
2022/01/28 11:36:40;;;;;;;12.93;6.88;;;;;;;7.98;87.88;102087.97;5014272;28;20354;-64
2022/01/28 11:39:29;;;;;;;13.43;7.47;;;;;;;7.97;87.91;102080.88;5013361;28;20393;-64
2022/01/28 11:41:59;;;;;;;17.48;8.85;;;;;;;7.95;88.81;102090.59;5010565;28;20378;-64
2022/01/28 11:45:01;;;;;;;16.38;7.45;;;;;;;8.03;88.30;102096.84;5013818;28;20053;-64
2022/01/28 11:47:28;;;;;;;14.55;6.68;;;;;;;8.01;88.78;102082.69;4991743;28;20129;-64
2022/01/28 11:50:05;;;;;;;17.52;7.40;;;;;;;8.12;88.64;102092.53;5009397;28;20045;-64
2022/01/28 11:52:39;;;;;;;14.73;8.25;;;;;;;7.97;88.49;102088.81;5013746;28;20033;-64
2022/01/28 11:55:14;;;;;;;12.15;6.38;;;;;;;7.76;88.24;102083.28;5013312;28;20509;-64
2022/01/28 11:58:11;;;;;;;18.38;8.32;;;;;;;7.72;88.91;102089.44;5013670;28;20033;-64
2022/01/28 12:00:44;;;;;;;15.82;7.97;;;;;;;7.68;89.37;102087.59;5013192;28;20025;-63
2022/01/28 12:03:23;;;;;;;15.45;6.40;;;;;;;7.61;90.46;102085.75;5007531;28;20038;-63
2022/01/28 12:05:50;;;;;;;12.25;7.45;;;;;;;7.66;90.37;102077.88;4993228;28;20502;-63
2022/01/28 12:08:17;;;;;;;14.45;6.43;;;;;;;7.65;91.26;102082.28;4993443;28;20108;-63
2022/01/28 12:10:46;;;;;;;14.73;6.68;;;;;;;7.64;91.17;102082.25;4993488;28;20026;-63
2022/01/28 12:13:16;;;;;;;13.68;7.00;;;;;;;7.58;92.18;102075.13;4993663;28;20030;-63
2022/01/28 12:16:01;;;;;;;12.45;7.07;;;;;;;7.57;92.97;102076.00;4993720;28;20038;-64
2022/01/28 12:18:45;;;;;;;15.73;7.65;;;;;;;7.59;93.79;102081.31;4993668;28;20058;-63
2022/01/28 12:21:15;;;;;;;14.13;7.05;;;;;;;7.59;92.54;102082.22;4992984;28;20030;-63
2022/01/28 12:23:41;;;;;;;13.65;7.45;;;;;;;7.59;93.73;102076.91;4993573;28;20026;-63
2022/01/28 12:26:07;;;;;;;15.65;7.35;;;;;;;7.44;93.26;102076.72;4992958;28;20026;-63
2022/01/28 12:28:32;;;;;;;17.25;8.60;;;;;;;7.39;94.01;102070.47;4993791;28;20030;-63
2022/01/28 12:31:01;;;;;;;16.92;9.93;;;;;;;7.46;94.45;102074.94;4994455;28;20038;-63
2022/01/28 12:33:32;;;;;;;15.95;9.23;;;;;;;7.55;93.10;102064.50;5003625;28;20025;-64
2022/01/28 12:36:00;;;;;;;12.80;7.15;;;;;;;7.56;92.81;102050.38;5012689;28;20025;-64
2022/01/28 12:38:30;;;;;;;16.65;7.75;;;;;;;7.62;92.49;102055.75;5013232;28;20088;-63
2022/01/28 12:41:05;;;;;;;16.25;7.60;;;;;;;7.72;91.95;102051.44;5010876;28;20116;-63
2022/01/28 12:43:31;;;;;;;17.08;7.68;;;;;;;7.75;91.60;102043.53;5012194;28;20103;-64